Time;durP1;ratioP1;P1;durP2;ratioP2;P2;SDS_P1;SDS_P2;PMS_P1;PMS_P2;Temp;Humidity;BMP_temperature;BMP_pressure;BME280_temperature;BME280_humidity;BME280_pressure;Samples;Min_cycle;Max_cycle;Signal;HPM_P1;HPM_P2
2022/10/02 00:00:50;;;;;;;8.45;5.43;;;20.70;67.30;;;;;;5078517;28;20032;-80
2022/10/02 00:03:25;;;;;;;7.93;5.43;;;20.70;67.30;;;;;;5096564;28;20038;-81
2022/10/02 00:06:07;;;;;;;6.90;5.07;;;20.70;67.30;;;;;;5079382;28;20047;-80
2022/10/02 00:08:40;;;;;;;6.72;5.10;;;20.70;67.20;;;;;;5078948;28;20351;-81
2022/10/02 00:11:12;;;;;;;6.65;5.15;;;20.70;67.20;;;;;;5078842;28;20054;-80
2022/10/02 00:13:49;;;;;;;7.57;5.18;;;20.70;67.30;;;;;;5096386;28;20036;-80
2022/10/02 00:16:30;;;;;;;7.60;5.30;;;20.70;67.30;;;;;;5078845;28;20169;-79
2022/10/02 00:18:56;;;;;;;8.27;5.10;;;20.70;67.20;;;;;;5096403;28;20028;-80
2022/10/02 00:21:28;;;;;;;8.00;5.10;;;20.70;67.20;;;;;;5096238;28;20077;-80
2022/10/02 00:24:06;;;;;;;6.60;5.32;;;20.70;67.20;;;;;;5078342;28;20523;-80
2022/10/02 00:26:40;;;;;;;6.53;4.97;;;20.70;67.20;;;;;;5077929;28;20046;-81
2022/10/02 00:29:29;;;;;;;7.05;5.15;;;20.70;67.20;;;;;;5078657;28;20410;-80
2022/10/02 00:32:12;;;;;;;7.22;5.25;;;20.70;67.10;;;;;;5095952;28;20056;-80
2022/10/02 00:34:56;;;;;;;6.93;5.07;;;20.70;67.10;;;;;;5077574;28;20374;-80
2022/10/02 00:37:52;;;;;;;7.20;5.40;;;20.70;67.10;;;;;;5078085;28;20488;-81
2022/10/02 00:40:48;;;;;;;6.82;5.05;;;20.70;67.10;;;;;;5077292;28;20040;-80
2022/10/02 00:43:32;;;;;;;6.97;5.05;;;20.70;67.10;;;;;;5094758;28;20424;-79
2022/10/02 00:46:10;;;;;;;5.13;4.33;;;20.70;67.10;;;;;;5077553;28;20020;-80
2022/10/02 00:48:50;;;;;;;6.18;4.82;;;20.70;67.00;;;;;;5077877;28;20114;-80
2022/10/02 00:51:32;;;;;;;7.75;5.03;;;20.70;67.00;;;;;;5077432;28;20032;-80
2022/10/02 00:54:45;;;;;;;7.20;5.20;;;20.80;67.10;;;;;;5095801;28;20024;-79
2022/10/02 00:57:28;;;;;;;6.55;4.75;;;20.70;67.00;;;;;;5077386;28;20028;-80
2022/10/02 01:00:13;;;;;;;5.93;4.65;;;20.70;67.00;;;;;;5078041;28;20101;-81
2022/10/02 01:02:56;;;;;;;5.22;4.20;;;20.70;66.90;;;;;;5095338;28;20028;-80
2022/10/02 01:05:22;;;;;;;5.97;4.63;;;20.70;66.90;;;;;;5077410;28;20466;-79
2022/10/02 01:07:51;;;;;;;5.90;4.63;;;20.70;66.90;;;;;;5095811;28;20154;-79
2022/10/02 01:10:18;;;;;;;5.88;4.88;;;20.70;66.90;;;;;;5095491;28;20393;-81
2022/10/02 01:12:44;;;;;;;6.45;5.03;;;20.70;66.90;;;;;;5095183;28;20024;-80
2022/10/02 01:15:15;;;;;;;5.70;4.68;;;20.70;66.90;;;;;;5095509;28;20030;-80
2022/10/02 01:17:41;;;;;;;5.45;4.43;;;20.80;66.90;;;;;;5077112;28;20029;-81
2022/10/02 01:20:16;;;;;;;6.82;4.90;;;20.80;66.80;;;;;;5095036;28;20032;-80
2022/10/02 01:23:03;;;;;;;5.78;4.40;;;20.80;66.80;;;;;;5076745;28;20114;-80
2022/10/02 01:25:29;;;;;;;5.68;4.60;;;20.80;66.60;;;;;;5077048;28;20028;-80
2022/10/02 01:27:54;;;;;;;5.40;4.40;;;20.80;66.80;;;;;;5095384;28;20034;-80
2022/10/02 01:30:21;;;;;;;6.00;4.78;;;20.80;66.80;;;;;;5077113;28;20035;-80
2022/10/02 01:32:51;;;;;;;6.28;4.82;;;20.80;66.70;;;;;;5095249;28;20038;-80
2022/10/02 01:35:21;;;;;;;5.35;4.13;;;20.80;66.80;;;;;;5077339;28;20425;-81
2022/10/02 01:37:48;;;;;;;5.47;4.50;;;20.80;66.70;;;;;;5077569;28;20119;-80
2022/10/02 01:40:40;;;;;;;5.53;4.45;;;20.80;66.70;;;;;;5095029;28;20397;-80
2022/10/02 01:43:20;;;;;;;5.53;4.60;;;20.80;66.50;;;;;;5072171;28;20462;-80
2022/10/02 01:46:15;;;;;;;5.15;4.25;;;20.80;66.60;;;;;;5093850;28;20036;-80
2022/10/02 01:49:07;;;;;;;5.00;3.92;;;20.80;66.70;;;;;;5071385;28;20032;-80
2022/10/02 01:51:56;;;;;;;5.90;4.00;;;20.80;66.60;;;;;;5076683;28;20031;-81
2022/10/02 01:54:22;;;;;;;5.07;3.90;;;20.80;66.50;;;;;;5077230;28;20381;-80
2022/10/02 01:57:03;;;;;;;4.45;3.80;;;20.70;66.50;;;;;;5094881;28;20024;-80
2022/10/02 01:59:43;;;;;;;5.60;4.00;;;20.70;66.50;;;;;;5094321;28;20059;-79
2022/10/02 02:02:17;;;;;;;5.30;4.15;;;20.70;66.50;;;;;;5076131;28;20596;-81
2022/10/02 02:05:07;;;;;;;3.95;3.55;;;20.70;66.50;;;;;;5076813;28;20020;-81
2022/10/02 02:07:45;;;;;;;5.22;4.03;;;20.80;66.50;;;;;;5076387;28;20474;-79
2022/10/02 02:10:34;;;;;;;4.90;3.90;;;20.80;66.50;;;;;;5076477;28;20031;-80
2022/10/02 02:13:21;;;;;;;7.05;4.38;;;20.80;66.50;;;;;;5094883;28;20020;-80
2022/10/02 02:16:13;;;;;;;4.07;3.45;;;20.70;66.50;;;;;;5094562;28;20028;-81
2022/10/02 02:18:45;;;;;;;5.20;3.63;;;20.80;66.50;;;;;;5076577;28;20052;-80
2022/10/02 02:21:31;;;;;;;5.30;4.18;;;20.80;66.50;;;;;;5076442;28;20440;-84
2022/10/02 02:24:01;;;;;;;5.07;3.55;;;20.80;66.50;;;;;;5075926;28;20119;-80
2022/10/02 02:26:28;;;;;;;6.45;4.03;;;20.80;66.50;;;;;;5076269;28;20125;-81
2022/10/02 02:29:00;;;;;;;3.65;3.20;;;20.80;66.50;;;;;;5093910;28;20024;-81
2022/10/02 02:31:31;;;;;;;5.15;3.67;;;20.80;66.50;;;;;;5075724;28;20028;-81
2022/10/02 02:34:01;;;;;;;3.72;3.40;;;20.80;66.50;;;;;;5094058;28;20020;-81
2022/10/02 02:36:33;;;;;;;4.10;3.65;;;20.80;66.50;;;;;;5093822;28;20028;-81
2022/10/02 02:39:10;;;;;;;5.18;3.78;;;20.80;66.50;;;;;;5093857;28;20052;-81
2022/10/02 02:41:43;;;;;;;4.20;3.67;;;20.80;66.50;;;;;;5075835;28;20060;-81
2022/10/02 02:44:13;;;;;;;3.72;3.30;;;20.80;66.50;;;;;;5093989;28;20035;-80
2022/10/02 02:47:02;;;;;;;5.22;3.40;;;20.80;66.50;;;;;;5093812;28;20047;-80
2022/10/02 02:49:34;;;;;;;4.28;3.75;;;20.80;66.50;;;;;;5075527;28;20035;-80
2022/10/02 02:52:02;;;;;;;3.90;3.42;;;20.80;66.50;;;;;;5093676;28;20038;-81
2022/10/02 02:54:55;;;;;;;7.05;3.63;;;20.80;66.50;;;;;;5075486;28;20150;-80
2022/10/02 02:57:31;;;;;;;5.28;3.65;;;20.80;66.50;;;;;;5078632;28;20032;-81
2022/10/02 02:59:59;;;;;;;6.00;3.67;;;20.80;66.50;;;;;;5079679;28;20070;-80
2022/10/02 03:02:24;;;;;;;5.05;4.07;;;20.80;66.60;;;;;;5097687;28;20420;-80
2022/10/02 03:04:50;;;;;;;4.47;3.65;;;20.80;66.70;;;;;;5097948;28;20028;-80
2022/10/02 03:07:16;;;;;;;3.88;3.47;;;20.80;66.70;;;;;;5098152;28;20078;-80
2022/10/02 03:10:04;;;;;;;4.50;3.72;;;20.80;66.80;;;;;;5079781;28;20020;-81
2022/10/02 03:12:46;;;;;;;4.13;3.42;;;20.80;66.80;;;;;;5097619;28;20024;-80
2022/10/02 03:15:37;;;;;;;4.28;3.78;;;20.80;66.90;;;;;;5079531;28;20024;-81
2022/10/02 03:18:19;;;;;;;3.80;3.35;;;20.80;67.00;;;;;;5097510;28;20409;-80
2022/10/02 03:21:16;;;;;;;4.40;3.70;;;20.80;67.00;;;;;;5079442;28;20036;-81
2022/10/02 03:24:14;;;;;;;5.00;3.70;;;20.80;67.10;;;;;;5079267;28;20085;-81
2022/10/02 03:26:46;;;;;;;3.92;3.45;;;20.80;67.20;;;;;;5083957;28;20063;-82
2022/10/02 03:29:19;;;;;;;4.78;3.58;;;20.80;67.20;;;;;;5097356;28;20106;-81
2022/10/02 03:31:45;;;;;;;4.32;3.85;;;20.80;67.40;;;;;;5079203;28;20115;-80
2022/10/02 03:34:12;;;;;;;4.85;3.83;;;20.80;67.40;;;;;;5079673;28;20515;-82
2022/10/02 03:36:38;;;;;;;4.68;3.65;;;20.80;67.50;;;;;;5079163;28;20031;-79
2022/10/02 03:39:05;;;;;;;5.53;3.85;;;20.80;67.50;;;;;;5097032;28;20036;-81
2022/10/02 03:41:31;;;;;;;4.10;3.60;;;20.80;67.60;;;;;;5096971;28;20101;-82
2022/10/02 03:43:56;;;;;;;4.38;3.55;;;20.80;67.70;;;;;;5096959;28;20031;-78
2022/10/02 03:46:22;;;;;;;3.65;3.25;;;20.80;67.80;;;;;;5097380;28;20024;-81
2022/10/02 03:48:48;;;;;;;6.15;4.07;;;20.80;67.90;;;;;;5097365;28;20556;-81
2022/10/02 03:51:13;;;;;;;4.57;3.55;;;20.80;68.00;;;;;;5079538;28;20059;-80
2022/10/02 03:53:41;;;;;;;4.13;3.58;;;20.80;68.10;;;;;;5079842;28;20047;-79
2022/10/02 03:56:25;;;;;;;4.72;3.60;;;20.80;68.20;;;;;;5079928;28;20090;-80
2022/10/02 03:58:52;;;;;;;;;;;20.80;68.40;;;;;;5097554;28;20051;-81
2022/10/02 04:01:30;;;;;;;3.92;3.08;;;20.80;68.80;;;;;;5078568;28;20006;-81
2022/10/02 04:04:16;;;;;;;4.22;3.42;;;20.80;68.40;;;;;;5078808;28;20537;-77
2022/10/02 04:06:59;;;;;;;4.38;3.35;;;20.80;68.50;;;;;;5096747;28;20455;-81
2022/10/02 04:09:38;;;;;;;3.90;3.17;;;20.80;68.50;;;;;;5096220;28;20032;-81
2022/10/02 04:12:13;;;;;;;3.40;3.10;;;20.80;68.60;;;;;;5078936;28;20024;-80
2022/10/02 04:14:54;;;;;;;3.45;3.15;;;20.80;68.70;;;;;;5078637;28;20020;-81
2022/10/02 04:17:26;;;;;;;4.72;3.80;;;20.80;68.80;;;;;;5078519;28;20073;-80
2022/10/02 04:20:01;;;;;;;4.15;3.05;;;20.80;68.80;;;;;;5077932;28;20028;-81
2022/10/02 04:22:36;;;;;;;4.30;3.10;;;20.80;68.90;;;;;;5078792;28;20028;-81
2022/10/02 04:25:07;;;;;;;;;;;20.80;68.90;;;;;;5096892;28;20020;-81
2022/10/02 04:27:41;;;;;;;3.38;2.80;;;20.80;69.30;;;;;;5096671;28;19948;-81
2022/10/02 04:30:17;;;;;;;3.53;3.00;;;20.80;68.90;;;;;;5077943;28;20466;-80
2022/10/02 04:32:42;;;;;;;3.33;3.00;;;20.80;69.00;;;;;;5078523;28;20119;-80
2022/10/02 04:35:59;;;;;;;3.40;2.80;;;20.80;69.00;;;;;;5096191;28;20467;-81
2022/10/02 04:38:53;;;;;;;3.63;2.70;;;20.80;69.30;;;;;;5053724;28;20076;-81
2022/10/02 04:41:50;;;;;;;3.95;3.15;;;20.80;69.10;;;;;;5096007;28;20052;-81
2022/10/02 04:44:35;;;;;;;2.97;2.65;;;20.90;69.30;;;;;;5096006;28;20035;-80
2022/10/02 04:47:01;;;;;;;3.15;2.80;;;20.90;69.20;;;;;;5077563;28;20036;-81
2022/10/02 04:49:41;;;;;;;2.97;2.75;;;20.90;69.20;;;;;;5078752;28;20378;-80
2022/10/02 04:52:14;;;;;;;2.90;2.63;;;20.80;69.20;;;;;;5079251;28;20024;-80
2022/10/02 04:54:56;;;;;;;2.88;2.58;;;20.90;69.30;;;;;;5078298;28;20020;-79
2022/10/02 04:57:31;;;;;;;4.47;2.90;;;20.90;69.40;;;;;;5095980;28;20039;-81
2022/10/02 05:00:15;;;;;;;2.75;2.50;;;20.90;69.30;;;;;;5077647;28;20028;-79
2022/10/02 05:02:50;;;;;;;;;;;20.90;69.40;;;;;;5096030;28;20378;-81
2022/10/02 05:05:32;;;;;;;3.03;2.33;;;20.90;69.70;;;;;;5095506;28;19904;-80
2022/10/02 05:08:30;;;;;;;3.15;2.85;;;20.90;69.40;;;;;;5095889;28;20028;-81
2022/10/02 05:10:56;;;;;;;3.15;2.60;;;20.90;69.50;;;;;;5095480;28;20454;-80
2022/10/02 05:13:30;;;;;;;3.03;2.40;;;20.90;69.40;;;;;;5095469;28;20055;-81
2022/10/02 05:16:02;;;;;;;;;;;20.90;69.50;;;;;;5077562;28;20035;-81
2022/10/02 05:18:53;;;;;;;2.55;2.35;;;20.90;69.90;;;;;;5077556;28;19908;-80
2022/10/02 05:21:31;;;;;;;2.80;2.60;;;20.90;69.60;;;;;;5076067;28;20031;-80
2022/10/02 05:24:06;;;;;;;2.70;2.50;;;20.90;69.50;;;;;;5094993;28;20032;-80
2022/10/02 05:26:46;;;;;;;2.70;2.50;;;20.90;69.60;;;;;;5076714;28;20035;-81
2022/10/02 05:29:29;;;;;;;3.15;2.45;;;20.90;69.70;;;;;;5077283;28;20032;-81
2022/10/02 05:32:20;;;;;;;2.70;2.50;;;20.90;69.70;;;;;;5095246;28;20036;-82
2022/10/02 05:35:10;;;;;;;2.47;2.28;;;20.90;69.80;;;;;;5094622;28;20024;-81
2022/10/02 05:37:56;;;;;;;2.90;2.55;;;21.00;69.90;;;;;;5076722;28;20028;-77
2022/10/02 05:40:41;;;;;;;3.30;2.95;;;21.00;69.80;;;;;;5094563;28;20106;-81
2022/10/02 05:43:06;;;;;;;2.83;2.63;;;20.90;69.80;;;;;;5095140;28;20039;-80
2022/10/02 05:45:55;;;;;;;2.97;2.60;;;21.00;69.80;;;;;;5094639;28;20024;-81
2022/10/02 05:48:21;;;;;;;3.00;2.70;;;21.00;70.00;;;;;;5094892;28;20119;-81
2022/10/02 05:50:52;;;;;;;3.30;2.92;;;21.00;69.90;;;;;;5094845;28;20055;-82
2022/10/02 05:53:38;;;;;;;3.20;2.88;;;21.00;69.90;;;;;;5076290;28;20024;-79
2022/10/02 05:56:10;;;;;;;3.95;3.15;;;21.00;70.10;;;;;;5094633;28;20032;-77
2022/10/02 05:58:46;;;;;;;3.40;3.10;;;21.00;70.00;;;;;;5094790;28;20020;-80
2022/10/02 06:01:20;;;;;;;4.07;3.22;;;21.00;70.00;;;;;;5094336;28;20032;-81
2022/10/02 06:03:47;;;;;;;;;;;21.00;70.10;;;;;;5076865;28;20374;-81
2022/10/02 06:06:18;;;;;;;3.10;2.60;;;21.00;70.40;;;;;;5094489;28;19908;-81
2022/10/02 06:09:08;;;;;;;4.95;3.00;;;21.00;70.10;;;;;;5094520;28;20020;-83
2022/10/02 06:11:46;;;;;;;3.72;2.83;;;21.00;70.20;;;;;;5094160;28;20024;-81
2022/10/02 06:14:33;;;;;;;3.17;2.85;;;21.00;70.20;;;;;;5078278;28;20106;-80
2022/10/02 06:17:17;;;;;;;3.10;2.80;;;21.00;70.20;;;;;;5094400;28;20031;-80
2022/10/02 06:20:00;;;;;;;3.25;2.95;;;21.00;70.20;;;;;;5094193;28;20035;-81
2022/10/02 06:22:54;;;;;;;3.25;2.53;;;21.00;70.20;;;;;;5093998;28;20039;-81
2022/10/02 06:25:29;;;;;;;3.40;3.00;;;21.00;70.20;;;;;;5076436;28;20028;-81
2022/10/02 06:28:26;;;;;;;2.88;2.67;;;21.10;70.30;;;;;;5077187;28;20035;-78
2022/10/02 06:31:00;;;;;;;3.80;3.10;;;21.10;70.30;;;;;;5088738;28;20044;-82
2022/10/02 06:33:32;;;;;;;3.63;3.30;;;21.00;70.30;;;;;;5094016;28;20458;-82
2022/10/02 06:36:20;;;;;;;3.45;3.00;;;21.10;70.40;;;;;;5094165;28;20062;-82
2022/10/02 06:39:10;;;;;;;3.53;3.00;;;21.10;70.60;;;;;;5076076;28;20021;-81
2022/10/02 06:42:13;;;;;;;3.60;3.22;;;21.00;70.50;;;;;;5072430;28;20055;-81
2022/10/02 06:44:56;;;;;;;3.50;3.20;;;21.10;70.70;;;;;;5077173;28;20048;-81
2022/10/02 06:47:45;;;;;;;4.00;3.03;;;21.10;70.60;;;;;;5073292;28;20037;-81
2022/10/02 06:50:23;;;;;;;4.25;3.08;;;21.10;70.70;;;;;;5074448;28;20382;-80
2022/10/02 06:52:53;;;;;;;4.10;3.50;;;21.10;70.60;;;;;;5074348;28;20107;-80
2022/10/02 06:55:39;;;;;;;3.78;3.15;;;21.10;70.70;;;;;;5073801;28;20021;-80
2022/10/02 06:58:23;;;;;;;4.00;3.20;;;21.10;70.90;;;;;;5073413;28;20031;-81
2022/10/02 07:01:09;;;;;;;3.42;3.03;;;21.10;71.00;;;;;;5073680;28;20036;-80
2022/10/02 07:04:07;;;;;;;4.00;3.00;;;21.10;70.90;;;;;;5073609;28;20044;-80
2022/10/02 07:06:51;;;;;;;4.60;3.80;;;21.10;71.00;;;;;;5056591;28;20033;-80
2022/10/02 07:09:44;;;;;;;3.95;3.50;;;21.10;71.00;;;;;;5072686;28;20024;-79
2022/10/02 07:12:31;;;;;;;4.80;3.75;;;21.10;71.30;;;;;;5072372;28;20037;-81
2022/10/02 07:15:25;;;;;;;5.47;3.83;;;21.10;71.30;;;;;;5071963;28;20121;-81
2022/10/02 07:18:11;;;;;;;4.18;3.63;;;21.10;71.40;;;;;;5074523;28;20097;-80
2022/10/02 07:21:00;;;;;;;3.95;3.55;;;21.10;71.30;;;;;;5078306;28;20033;-80
2022/10/02 07:23:47;;;;;;;5.00;4.00;;;21.10;71.40;;;;;;5073448;28;20082;-81
2022/10/02 07:26:27;;;;;;;4.57;3.72;;;21.10;71.60;;;;;;5073194;28;20054;-80
2022/10/02 07:29:10;;;;;;;4.40;3.97;;;21.10;71.50;;;;;;5072235;28;20028;-80
2022/10/02 07:32:11;;;;;;;3.85;3.47;;;21.10;71.50;;;;;;5073765;28;20056;-80
2022/10/02 07:34:54;;;;;;;4.60;3.65;;;21.10;71.60;;;;;;5072230;28;20041;-79
2022/10/02 07:37:36;;;;;;;4.03;3.63;;;21.20;71.50;;;;;;5073352;28;20031;-81
2022/10/02 07:40:29;;;;;;;4.35;3.95;;;21.20;71.60;;;;;;5077779;28;20087;-80
2022/10/02 07:43:14;;;;;;;4.13;3.72;;;21.20;71.60;;;;;;5094122;28;20094;-80
2022/10/02 07:45:43;;;;;;;4.50;4.05;;;21.20;71.60;;;;;;5079413;28;20039;-81
2022/10/02 07:48:31;;;;;;;5.50;4.65;;;21.20;71.70;;;;;;5097385;28;20020;-81
2022/10/02 07:51:45;;;;;;;4.50;4.10;;;21.20;71.80;;;;;;5079019;28;20043;-79
2022/10/02 07:54:28;;;;;;;5.28;4.30;;;21.10;71.80;;;;;;5096870;28;20035;-81
2022/10/02 07:56:59;;;;;;;4.63;4.22;;;21.20;72.30;;;;;;5077249;28;20066;-81
2022/10/02 07:59:28;;;;;;;6.88;4.43;;;21.10;71.90;;;;;;5079394;28;20024;-81
2022/10/02 08:01:54;;;;;;;5.28;4.78;;;21.10;72.10;;;;;;5096811;28;20032;-80
2022/10/02 08:04:28;;;;;;;4.40;4.00;;;21.10;72.20;;;;;;5079130;28;20035;-80
2022/10/02 08:06:59;;;;;;;5.00;4.35;;;21.10;72.30;;;;;;5097204;28;20059;-78
2022/10/02 08:09:40;;;;;;;4.85;4.35;;;21.10;72.40;;;;;;5078573;28;20039;-78
2022/10/02 08:12:55;;;;;;;5.40;4.88;;;21.10;72.50;;;;;;5097171;28;20032;-80
2022/10/02 08:15:23;;;;;;;5.88;4.70;;;21.20;72.60;;;;;;5067979;28;20060;-82
2022/10/02 08:17:54;;;;;;;5.32;4.82;;;21.20;72.20;;;;;;5096887;28;20028;-80
2022/10/02 08:20:35;;;;;;;5.40;4.55;;;21.30;72.20;;;;;;5096838;28;20115;-82
2022/10/02 08:23:12;;;;;;;5.13;4.20;;;21.30;72.10;;;;;;5096592;28;20107;-80
2022/10/02 08:26:01;;;;;;;4.55;4.15;;;21.30;72.10;;;;;;5096500;28;20028;-81
2022/10/02 08:28:55;;;;;;;4.88;4.30;;;21.30;72.10;;;;;;5078384;28;20024;-81
2022/10/02 08:31:22;;;;;;;5.25;4.60;;;21.30;72.10;;;;;;5086588;28;20493;-81
2022/10/02 08:33:47;;;;;;;4.57;4.00;;;21.40;72.00;;;;;;5078007;28;20483;-80
2022/10/02 08:36:19;;;;;;;5.35;4.43;;;21.40;72.00;;;;;;5096330;28;20071;-81
2022/10/02 08:38:48;;;;;;;6.13;4.35;;;21.40;71.80;;;;;;5078912;28;20437;-81
2022/10/02 08:41:14;;;;;;;5.60;5.10;;;21.50;71.90;;;;;;5096349;28;20055;-80
2022/10/02 08:43:59;;;;;;;5.20;4.47;;;21.40;71.80;;;;;;5096149;28;20028;-80
2022/10/02 08:46:57;;;;;;;5.40;4.90;;;21.50;71.90;;;;;;5077683;28;20261;-80
2022/10/02 08:49:40;;;;;;;5.15;4.40;;;21.50;71.90;;;;;;5095899;28;20032;-81
2022/10/02 08:52:44;;;;;;;4.60;4.10;;;21.40;71.80;;;;;;5078235;28;20492;-81
2022/10/02 08:55:43;;;;;;;5.57;4.07;;;21.50;71.80;;;;;;5058356;28;20032;-80
2022/10/02 08:58:21;;;;;;;4.20;3.80;;;21.50;71.70;;;;;;5077723;28;20082;-80
2022/10/02 09:00:55;;;;;;;4.93;4.03;;;21.50;71.70;;;;;;5077407;28;20490;-79
2022/10/02 09:03:36;;;;;;;5.47;4.13;;;21.60;71.70;;;;;;5095724;28;20024;-80
2022/10/02 09:06:22;;;;;;;4.35;3.60;;;21.50;71.60;;;;;;5096047;28;20462;-81
2022/10/02 09:08:50;;;;;;;5.53;4.65;;;21.60;72.10;;;;;;5095821;28;20470;-81
2022/10/02 09:11:38;;;;;;;4.72;3.80;;;21.60;71.50;;;;;;5095368;28;20130;-81
2022/10/02 09:14:37;;;;;;;4.57;4.18;;;21.60;71.40;;;;;;5095416;28;20031;-80
2022/10/02 09:17:31;;;;;;;5.00;3.85;;;21.70;71.40;;;;;;5095362;28;20024;-81
2022/10/02 09:20:30;;;;;;;3.83;3.47;;;21.80;71.20;;;;;;5077392;28;20028;-80
2022/10/02 09:23:27;;;;;;;4.60;3.53;;;21.80;71.00;;;;;;5095505;28;20030;-80
2022/10/02 09:26:17;;;;;;;4.35;3.72;;;21.90;70.90;;;;;;5077008;28;20024;-80
2022/10/02 09:29:20;;;;;;;4.15;3.75;;;21.90;70.80;;;;;;5095357;28;20031;-80
2022/10/02 09:32:04;;;;;;;3.97;3.45;;;21.80;70.60;;;;;;5095091;28;20144;-80
2022/10/02 09:34:29;;;;;;;3.90;3.40;;;21.80;70.70;;;;;;5095124;28;20052;-80
2022/10/02 09:36:56;;;;;;;4.35;3.50;;;21.70;70.70;;;;;;5095019;28;20448;-80
2022/10/02 09:39:30;;;;;;;3.75;3.20;;;21.70;70.80;;;;;;5094898;28;20388;-81
2022/10/02 09:42:15;;;;;;;3.55;3.08;;;21.60;70.90;;;;;;5076715;28;20048;-81
2022/10/02 09:45:10;;;;;;;3.50;3.20;;;21.60;70.90;;;;;;5094744;28;20031;-80
2022/10/02 09:48:07;;;;;;;3.47;3.13;;;21.50;70.80;;;;;;5095148;28;20103;-81
2022/10/02 09:50:57;;;;;;;3.65;3.17;;;21.50;70.90;;;;;;5094928;28;20036;-81
2022/10/02 09:53:44;;;;;;;3.35;3.05;;;21.40;71.00;;;;;;5094647;28;20020;-80
2022/10/02 09:56:28;;;;;;;3.33;3.00;;;21.30;71.10;;;;;;5095010;28;20059;-80
2022/10/02 09:58:59;;;;;;;3.90;3.08;;;21.30;71.20;;;;;;5094712;28;20028;-82
2022/10/02 10:01:44;;;;;;;3.30;2.90;;;21.40;71.30;;;;;;5094531;28;20416;-81
2022/10/02 10:04:18;;;;;;;;;;;21.30;71.10;;;;;;5095201;28;20020;-80
2022/10/02 10:07:06;;;;;;;2.87;2.57;;;21.30;71.10;;;;;;5076278;28;20353;-81
2022/10/02 10:09:34;;;;;;;3.00;2.70;;;21.30;70.90;;;;;;5094476;28;20024;-80
2022/10/02 10:12:24;;;;;;;3.13;2.78;;;21.30;70.90;;;;;;5094502;28;20028;-80
2022/10/02 10:15:18;;;;;;;3.22;2.92;;;21.20;70.80;;;;;;5094781;28;20424;-81
2022/10/02 10:18:11;;;;;;;3.53;2.77;;;21.20;70.90;;;;;;5094743;28;20426;-82
2022/10/02 10:21:05;;;;;;;2.70;2.50;;;21.30;70.90;;;;;;5094867;28;20042;-80
2022/10/02 10:24:05;;;;;;;3.70;2.55;;;21.30;70.80;;;;;;5094490;28;20095;-80
2022/10/02 10:26:33;;;;;;;3.10;2.80;;;21.30;70.60;;;;;;5094308;28;20020;-81
2022/10/02 10:28:59;;;;;;;2.75;2.55;;;21.40;70.40;;;;;;5076138;28;20062;-81
2022/10/02 10:32:05;;;;;;;2.95;2.60;;;21.40;70.40;;;;;;5093943;28;20453;-82
2022/10/02 10:35:17;;;;;;;2.60;2.40;;;21.40;69.60;;;;;;5093680;28;20092;-80
2022/10/02 10:38:31;;;;;;;2.50;2.30;;;21.40;69.90;;;;;;5094043;28;20028;-82
2022/10/02 10:41:41;;;;;;;2.30;2.10;;;21.50;70.00;;;;;;5093599;28;20055;-81
2022/10/02 10:44:48;;;;;;;2.50;2.30;;;21.60;69.90;;;;;;4992257;28;20137;-81
2022/10/02 10:47:25;;;;;;;2.67;2.28;;;21.70;69.60;;;;;;5075648;28;20038;-82
2022/10/02 10:50:23;;;;;;;2.42;2.15;;;21.80;69.40;;;;;;5093949;28;20024;-83
2022/10/02 10:53:16;;;;;;;2.17;1.92;;;21.90;68.90;;;;;;5093946;28;20017;-81
2022/10/02 10:56:11;;;;;;;2.20;2.00;;;21.90;68.70;;;;;;5094080;28;20023;-81
2022/10/02 10:59:15;;;;;;;2.13;1.95;;;22.00;68.50;;;;;;5094785;28;20569;-82
2022/10/02 11:01:43;;;;;;;1.92;1.83;;;22.00;68.10;;;;;;5093730;28;20466;-81
2022/10/02 11:04:40;;;;;;;1.80;1.70;;;22.00;68.40;;;;;;5076450;28;20110;-81
2022/10/02 11:07:33;;;;;;;1.88;1.77;;;22.00;68.00;;;;;;5093280;28;20031;-81
2022/10/02 11:10:10;;;;;;;2.00;1.90;;;21.90;67.20;;;;;;5055730;28;20119;-81
2022/10/02 11:13:05;;;;;;;1.70;1.60;;;21.90;67.80;;;;;;5075562;28;20024;-80
2022/10/02 11:15:55;;;;;;;2.00;1.80;;;21.90;67.90;;;;;;5042150;28;20044;-80
2022/10/02 11:18:45;;;;;;;1.98;1.80;;;21.80;66.20;;;;;;5096580;28;20020;-81
2022/10/02 11:21:30;;;;;;;1.67;1.55;;;21.90;67.60;;;;;;5097525;28;20028;-83
2022/10/02 11:24:40;;;;;;;1.77;1.67;;;21.90;67.20;;;;;;5097518;28;20031;-81
2022/10/02 11:27:33;;;;;;;1.55;1.40;;;21.90;67.50;;;;;;5093291;28;20040;-80
2022/10/02 11:30:22;;;;;;;1.67;1.40;;;21.90;66.80;;;;;;5079902;28;20020;-82
2022/10/02 11:33:18;;;;;;;1.60;1.50;;;21.80;66.80;;;;;;5065922;28;20060;-82
2022/10/02 11:36:22;;;;;;;1.60;1.50;;;21.80;67.10;;;;;;5079755;28;20046;-82
2022/10/02 11:39:25;;;;;;;1.50;1.40;;;21.70;67.30;;;;;;4995495;28;20480;-81
2022/10/02 11:42:04;;;;;;;1.27;1.17;;;21.60;66.90;;;;;;5077633;28;20048;-82
2022/10/02 11:44:36;;;;;;;1.60;1.50;;;21.50;67.20;;;;;;5098154;28;20016;-82
2022/10/02 11:47:20;;;;;;;1.15;1.15;;;21.50;67.30;;;;;;5079301;28;20386;-81
2022/10/02 11:49:57;;;;;;;1.30;1.30;;;21.40;66.90;;;;;;5096913;28;20024;-82
2022/10/02 11:52:29;;;;;;;1.15;1.15;;;21.30;67.10;;;;;;5078977;28;20028;-78
2022/10/02 11:55:23;;;;;;;1.40;1.30;;;21.30;67.10;;;;;;5097134;28;20031;-78
2022/10/02 11:58:15;;;;;;;1.17;1.17;;;21.20;67.20;;;;;;5097474;28;20466;-81
2022/10/02 12:00:59;;;;;;;1.35;1.33;;;21.10;67.30;;;;;;5079038;28;20497;-81
2022/10/02 12:04:08;;;;;;;1.52;1.00;;;21.10;67.40;;;;;;5096863;28;20493;-81
2022/10/02 12:06:50;;;;;;;1.17;1.17;;;21.10;67.10;;;;;;5077758;28;20060;-79
2022/10/02 12:09:27;;;;;;;1.02;1.02;;;21.10;67.40;;;;;;5078888;28;20055;-80
2022/10/02 12:11:56;;;;;;;1.30;1.20;;;21.10;67.40;;;;;;5096630;28;20020;-79
2022/10/02 12:14:46;;;;;;;1.20;1.10;;;21.10;67.30;;;;;;5078416;28;20115;-80
2022/10/02 12:17:18;;;;;;;1.35;1.33;;;21.10;67.00;;;;;;5096418;28;20099;-81
2022/10/02 12:26:59;;;;;;;0.98;0.98;;;21.20;66.80;;;;;;5096778;28;20030;-82
2022/10/02 12:29:51;;;;;;;1.10;1.10;;;21.20;66.50;;;;;;5077230;28;20032;-81
2022/10/02 12:32:35;;;;;;;1.73;1.20;;;21.10;66.60;;;;;;5096270;28;20028;-82
2022/10/02 12:35:30;;;;;;;0.90;0.90;;;21.10;66.60;;;;;;5077963;28;20028;-80
2022/10/02 12:38:16;;;;;;;0.95;0.95;;;21.00;66.30;;;;;;5077980;28;20462;-81
2022/10/02 12:40:59;;;;;;;1.10;1.10;;;21.00;66.70;;;;;;5060257;28;20072;-81
2022/10/02 12:43:55;;;;;;;1.75;1.00;;;20.90;66.30;;;;;;5077900;28;20070;-81
2022/10/02 12:46:39;;;;;;;1.00;1.00;;;20.80;65.70;;;;;;5078547;28;20051;-81
2022/10/02 12:49:27;;;;;;;1.33;1.27;;;20.70;66.20;;;;;;5095922;28;20028;-80
2022/10/02 12:52:12;;;;;;;1.05;1.05;;;20.70;66.70;;;;;;5078149;28;20385;-82
2022/10/02 12:54:43;;;;;;;0.90;0.90;;;20.60;66.70;;;;;;5078451;28;20050;-81
2022/10/02 12:57:51;;;;;;;1.17;1.17;;;20.60;66.70;;;;;;5095811;28;20028;-81
2022/10/02 13:00:20;;;;;;;1.30;1.20;;;20.60;66.70;;;;;;5077652;28;20385;-81
2022/10/02 13:03:13;;;;;;;1.35;1.25;;;20.50;66.60;;;;;;5077282;28;20027;-80
2022/10/02 13:06:01;;;;;;;1.77;1.67;;;20.50;65.60;;;;;;5077470;28;20484;-82
2022/10/02 13:08:47;;;;;;;1.20;1.20;;;20.40;66.50;;;;;;5095418;28;20024;-82
2022/10/02 13:11:34;;;;;;;1.10;1.10;;;20.40;66.00;;;;;;5095704;28;20035;-80
2022/10/02 13:14:25;;;;;;;1.60;1.50;;;20.30;65.70;;;;;;5095875;28;20031;-81
2022/10/02 13:17:04;;;;;;;1.60;1.50;;;20.30;65.40;;;;;;5073297;28;20449;-81
2022/10/02 13:19:52;;;;;;;1.38;1.38;;;20.30;66.00;;;;;;5082664;28;20028;-77
2022/10/02 13:22:48;;;;;;;1.30;1.20;;;20.20;66.00;;;;;;5095870;28;20063;-80
2022/10/02 13:25:35;;;;;;;1.80;1.70;;;20.20;65.10;;;;;;5094325;28;20158;-81
2022/10/02 13:28:12;;;;;;;1.65;1.55;;;20.20;65.60;;;;;;5093640;28;20031;-80
2022/10/02 13:30:52;;;;;;;2.50;1.60;;;20.10;65.70;;;;;;5094430;28;20473;-79
2022/10/02 13:33:36;;;;;;;1.60;1.50;;;20.10;64.90;;;;;;5076111;28;20122;-79
2022/10/02 13:36:28;;;;;;;1.60;1.50;;;20.00;65.60;;;;;;5076005;28;20469;-80
2022/10/02 13:39:04;;;;;;;3.20;1.58;;;20.00;64.80;;;;;;5094410;28;20021;-81
2022/10/02 13:41:53;;;;;;;1.60;1.50;;;20.00;65.20;;;;;;5093027;28;20076;-81
2022/10/02 13:44:48;;;;;;;1.30;1.20;;;19.90;65.40;;;;;;5094647;28;20032;-81
2022/10/02 13:47:39;;;;;;;1.40;1.30;;;19.90;64.40;;;;;;5091074;28;20062;-78
2022/10/02 13:50:23;;;;;;;1.60;1.50;;;19.90;64.80;;;;;;5092487;28;20031;-83
2022/10/02 13:53:06;;;;;;;;;;;19.90;64.40;;;;;;5077830;28;20048;-81
2022/10/02 13:55:43;;;;;;;1.40;1.30;;;19.80;63.50;;;;;;5095934;28;20366;-81
2022/10/02 13:58:18;;;;;;;1.20;1.20;;;19.80;64.70;;;;;;5094595;28;20023;-83
2022/10/02 14:01:03;;;;;;;1.15;1.15;;;19.80;64.30;;;;;;5094206;28;20032;-80
2022/10/02 14:03:53;;;;;;;1.42;1.35;;;19.70;64.50;;;;;;5092662;28;20023;-82
2022/10/02 14:06:45;;;;;;;1.40;1.30;;;19.70;63.80;;;;;;5093788;28;20051;-79
2022/10/02 14:09:19;;;;;;;1.40;1.30;;;19.70;63.80;;;;;;5074360;28;20046;-81
2022/10/02 14:12:03;;;;;;;1.02;1.02;;;19.60;63.90;;;;;;5075344;28;20428;-78